Carleton Place, Canada
Current Conditions -  °F | °C
As of 4:00 PM on Tuesday 27 Jan 2015 (Local Time) from CYOW Reporting Station
Broken Clouds Broken Clouds  
Wind Chill: -1°   Ceiling: 23000
Heat Index: 14°   Visibility: 15mi
Dew Point: -4°   Wind: 14mph
Humidity: 45%   Direction: 340°NNW
Pressure: 30.07"   Gusts: NA
Location:  45.13°N, 76.13°W
Report Text: CYOW 272100Z 34012KT 15SM FEW190 BKN230 M10/M20 A3007 RMK AC1CI6 SLP191
Loading
Personal Weather Stations






























Interactive Weather Map New forecast layout! Learn more

10-Day Weather Forecast

Advertisements
Track Severe Weather on mobile